ADDS METAR Data INFO
IDs: Format: Raw Decoded Include TAF

Data at: 0300 UTC 21 Jan 2018

KMMH 210255Z AUTO 27006KT 10SM CLR M07/M13 A3008 RMK AO2 T10681135
KMMH 210235Z AUTO 27005KT 10SM CLR M07/M14 A3007 RMK AO2 T10751136
KMMH 210215Z AUTO 28006KT 10SM CLR M06/M13 A3007 RMK AO2 T10621133
KMMH 210155Z AUTO 29006KT 10SM SCT050 M05/M14 A3005 RMK AO2 T10551136
KMMH 210135Z AUTO 30006KT 10SM SCT050 M05/M14 A3004 RMK AO2 T10541144
KMMH 210115Z AUTO 25007KT 10SM CLR M04/M14 A3004 RMK AO2 T10421140
KMMH 210055Z AUTO 25006KT 10SM CLR M03/M14 A3003 RMK AO2 T10331142
KMMH 210035Z AUTO 31007KT 10SM CLR M03/M15 A3002 RMK AO2 T10291153
KMMH 210015Z AUTO 30008KT 10SM CLR M02/M16 A3002 RMK AO2 T10231160
KMMH 202355Z AUTO 34013KT 10SM CLR M02/M16 A3001 RMK AO2 T10221161 10007 21040
KMMH 202335Z AUTO 34011G14KT 10SM CLR M02/M17 A3001 RMK AO2 T10201170
KMMH 202315Z AUTO 34013G18KT 10SM CLR 00/M17 A2999 RMK AO2 T00001170
KMMH 202255Z AUTO 33010G17KT 300V360 10SM CLR 00/M17 A2999 RMK AO2 T00021172
KMMH 202235Z AUTO 32009G16KT 10SM CLR 00/M17 A2998 RMK AO2 T00021169
KMMH 202215Z AUTO 32011KT 10SM CLR 01/M19 A2997 RMK AO2 T00061186
KMMH 202155Z AUTO 31008G15KT 10SM CLR 01/M18 A2997 RMK AO2 T00051182
KMMH 202135Z AUTO 31008G17KT 10SM SCT050 00/M17 A2997 RMK AO2 T00001168
KMMH 202115Z AUTO 30007G16KT 10SM SCT043 BKN050 00/M14 A2997 RMK AO2 T00001145
KMMH 202055Z AUTO 33006KT 10SM BKN041 OVC050 00/M13 A2997 RMK AO2 T10021126
KMMH 202035Z AUTO 28009G15KT 10SM SCT041 BKN050 00/M12 A2998 RMK AO2 T10051123
KMMH 202015Z AUTO 28009KT 10SM SCT035 BKN043 M01/M12 A2998 RMK AO2 T10081118
KMMH 201955Z AUTO 29007KT 10SM OVC035 M01/M12 A2999 RMK AO2 T10101117
KMMH 201935Z AUTO 26009KT 10SM BKN032 M02/M11 A2999 RMK AO2 T10201110
KMMH 201915Z AUTO 31010KT 10SM BKN030 OVC036 M03/M11 A3000 RMK AO2 T10301109
KMMH 201855Z AUTO 31008KT 10SM OVC030 M02/M11 A3001 RMK AO2 T10251106
KMMH 201835Z AUTO 28010G15KT 10SM -SN BKN030 OVC034 M03/M11 A3001 RMK AO2 T10311106
KMMH 201815Z AUTO 29009KT 10SM BKN028 OVC033 M03/M10 A3001 RMK AO2 T10351102
KMMH 201755Z AUTO 27009KT 10SM OVC026 M04/M10 A3000 RMK AO2 T10401101 11040 21069
KMMH 201735Z AUTO 28007KT 10SM OVC026 M04/M10 A2999 RMK AO2 T10441102
KMMH 201715Z AUTO 28009KT 10SM BKN026 M05/M10 A2999 RMK AO2 T10461102
KMMH 201655Z AUTO 31008KT 10SM SCT024 M04/M10 A2998 RMK AO2 T10401099
KMMH 201635Z AUTO 31006KT 10SM SCT022 M04/M10 A2997 RMK AO2 T10451096
KMMH 201615Z AUTO 31006KT 10SM CLR M05/M10 A2995 RMK AO2 T10521096
KMMH 201555Z AUTO 31006KT 10SM CLR M06/M10 A2995 RMK AO2 T10611100
KMMH 201535Z AUTO 31008KT 10SM SCT025 SCT065 SCT075 M07/M10 A2995 RMK AO2 T10691102
KMMH 201515Z AUTO 27010KT 10SM SCT022 BKN055 OVC075 M06/M09 A2993 RMK AO2 T10621095
KMMH 201455Z AUTO 27008KT 10SM SCT020 OVC055 M06/M09 A2993 RMK AO2 T10651090
KMMH 201435Z AUTO 27006KT 10SM BKN020 OVC055 M06/M08 A2993 RMK AO2 T10601085
KMMH 201415Z AUTO 27007KT 10SM BKN018 OVC049 M06/M08 A2993 RMK AO2 T10591080
KMMH 201355Z AUTO 25005KT 10SM SCT046 BKN049 OVC080 M06/M08 A2992 RMK AO2 T10601077
KMMH 201335Z AUTO 27007KT 3SM -SN SCT030 OVC047 M06/M07 A2992 RMK AO2 T10571075
KMMH 201315Z AUTO 27005KT 10SM SCT027 BKN034 OVC060 M05/M08 A2991 RMK AO2 T10531083
KMMH 201255Z AUTO 28008KT 10SM OVC035 M05/M08 A2991 RMK AO2 T10531085
KMMH 201235Z AUTO 28007KT 10SM OVC033 M05/M09 A2991 RMK AO2 T10501088
KMMH 201215Z AUTO 27007KT 10SM BKN033 OVC038 M05/M08 A2991 RMK AO2 T10541083
KMMH 201155Z AUTO 26009KT 10SM -SN SCT037 OVC046 M05/M08 A2990 RMK AO2 T10531080 11038 21066
KMMH 201135Z AUTO 27010KT 10SM OVC046 M05/M08 A2991 RMK AO2 T10501085
KMMH 201115Z AUTO 26010KT 10SM BKN048 OVC060 M05/M08 A2990 RMK AO2 T10511077
KMMH 201055Z AUTO 27009KT 10SM OVC048 M05/M08 A2991 RMK AO2 T10511080
KMMH 201035Z AUTO 27012G16KT 10SM BKN046 OVC050 M05/M09 A2991 RMK AO2 T10521086
KMMH 201015Z AUTO 26010KT 10SM SCT038 SCT046 OVC050 M05/M09 A2991 RMK AO2 T10481088
KMMH 200955Z AUTO 27009KT 10SM SCT029 SCT039 OVC048 M05/M09 A2991 RMK AO2 T10501091
KMMH 200935Z AUTO 27009KT 10SM BKN029 BKN038 OVC050 M05/M09 A2990 RMK AO2 T10471086
KMMH 200915Z AUTO 27008KT 10SM BKN029 OVC050 M05/M09 A2991 RMK AO2 T10501092
KMMH 200855Z AUTO 25007KT 10SM BKN029 BKN039 OVC046 M05/M10 A2991 RMK AO2 T10551099
KMMH 200835Z AUTO 27006KT 10SM -SN SCT027 BKN033 OVC046 M05/M10 A2991 RMK AO2 T10541101
KMMH 200815Z AUTO 29009KT 10SM SCT031 OVC041 M05/M10 A2991 RMK AO2 T10521099
KMMH 200755Z AUTO 26008KT 10SM BKN037 OVC043 M06/M10 A2991 RMK AO2 T10591100
KMMH 200735Z AUTO 29008KT 10SM OVC035 M05/M09 A2991 RMK AO2 T10551095
KMMH 200715Z AUTO 31007KT 10SM BKN037 M06/M10 A2991 RMK AO2 T10601101
KMMH 200655Z AUTO 32007KT 10SM SCT031 SCT038 SCT043 M06/M10 A2991 RMK AO2 T10651103
KMMH 200635Z AUTO 32007KT 10SM BKN045 M05/M10 A2991 RMK AO2 T10551103
KMMH 200615Z AUTO 27009KT 10SM BKN047 M05/M10 A2991 RMK AO2 T10461100
KMMH 200555Z AUTO 28012KT 10SM OVC048 M04/M10 A2991 RMK AO2 T10371105 10012 21042 400801042
KMMH 200535Z AUTO 29010KT 10SM BKN044 OVC050 M04/M12 A2991 RMK AO2 T10401116
KMMH 200515Z AUTO 31006KT 10SM OVC046 M04/M12 A2989 RMK AO2 T10371120
KMMH 200455Z AUTO 28009G14KT 10SM BKN048 M04/M12 A2989 RMK AO2 T10361122
KMMH 200435Z AUTO 29010KT 10SM CLR M04/M12 A2989 RMK AO2 T10381125
KMMH 200415Z AUTO 28012KT 10SM CLR M03/M12 A2988 RMK AO2 T10341124
KMMH 200355Z AUTO 27014KT 10SM CLR M04/M13 A2988 RMK AO2 T10361134
KMMH 200335Z AUTO 28007KT 10SM CLR M03/M14 A2987 RMK AO2 T10341145
KMMH 200315Z AUTO 32006KT 10SM CLR M03/M15 A2986 RMK AO2 T10331153
KMMH 200255Z AUTO 31005KT 10SM CLR M02/M19 A2985 RMK AO2 T10181187
KMMH 200235Z AUTO 18005KT 10SM CLR M01/M20 A2984 RMK AO2 T10141198
KMMH 200215Z AUTO 34009G19KT 10SM CLR M01/M23 A2984 RMK AO2 T10101228
KMMH 200155Z AUTO 33011KT 10SM CLR M02/M17 A2984 RMK AO2 T10221171
KMMH 200135Z AUTO 26008KT 10SM CLR 00/M25 A2985 RMK AO2 T00001252
KMMH 200115Z AUTO 23017KT 10SM CLR 00/M25 A2984 RMK AO2 T00021249
KMMH 200055Z AUTO 23014KT 10SM CLR 00/M25 A2985 RMK AO2 T00031255
KMMH 200035Z AUTO 24015G20KT 10SM CLR 01/M23 A2986 RMK AO2 T00051231
KMMH 200015Z AUTO 25012KT 10SM SCT120 01/M17 A2987 RMK AO2 T00081175
KMMH 192355Z AUTO 26012KT 10SM SCT120 01/M18 A2988 RMK AO2 T00121183 10027 20000
KMMH 192335Z AUTO 26014G17KT 10SM SCT120 02/M18 A2988 RMK AO2 T00151176
KMMH 192315Z AUTO 27015KT 10SM BKN120 02/M20 A2989 RMK AO2 T00161204
KMMH 192255Z AUTO 27012KT 10SM BKN120 02/M21 A2989 RMK AO2 T00171211
KMMH 192235Z AUTO 26015G19KT 10SM SCT033 BKN050 OVC120 02/M16 A2989 RMK AO2 T00201162
KMMH 192215Z AUTO 26013KT 10SM SCT031 BKN040 OVC048 02/M13 A2989 RMK AO2 T00211133
KMMH 192155Z AUTO 25018G23KT 10SM SCT033 OVC043 03/M12 A2989 RMK AO2 T00251117
KMMH 192135Z AUTO 26013G16KT 10SM SCT027 BKN038 OVC044 03/M06 A2988 RMK AO2 T00261057
KMMH 192115Z AUTO 23007KT 7SM -SN SCT021 BKN031 OVC039 02/M03 A2989 RMK AO2 T00161031
KMMH 192055Z AUTO 26007KT 5SM -SN SCT019 BKN029 OVC048 01/M04 A2989 RMK AO2 T00121039
KMMH 192035Z AUTO 27014G21KT 10SM SCT020 BKN048 OVC055 01/M06 A2991 RMK AO2 T00101061
KMMH 192015Z AUTO 28015G21KT 10SM -SN SCT020 BKN045 OVC050 01/M05 A2991 RMK AO2 T00071051
KMMH 191955Z AUTO 28015KT 10SM SCT016 SCT033 OVC045 01/M04 A2993 RMK AO2 T00061042
KMMH 191935Z AUTO 29014KT 7SM -SN SCT016 BKN021 OVC050 00/M03 A2994 RMK AO2 T00001030
KMMH 191915Z AUTO 29013KT 5SM -SN SCT021 BKN030 OVC036 00/M02 A2995 RMK AO2 T00001021
KMMH 191855Z AUTO 30010KT 10SM SCT020 BKN037 OVC043 00/M02 A2995 RMK AO2 T00011023
KMMH 191835Z AUTO 29010KT 7SM -SN SCT020 BKN031 OVC044 00/M02 A2996 RMK AO2 T00021021
KMMH 191815Z AUTO 30008KT 5SM -SN SCT017 BKN036 OVC043 00/M02 A2996 RMK AO2 T00021024
KMMH 191755Z AUTO 30009KT 10SM SCT015 BKN027 OVC042 00/M02 A2996 RMK AO2 T00021022 10057 20000
KMMH 191735Z AUTO 29005KT 5SM -SN BKN015 BKN022 OVC037 00/M02 A2996 RMK AO2 T00011017
KMMH 191715Z AUTO 36005KT 1SM -SN BKN013 OVC020 00/00 A2994 RMK AO2 T00001003
KMMH 191655Z AUTO 21004KT 7SM -SN SCT015 BKN028 OVC033 00/M02 A2996 RMK AO2 T00021019
KMMH 191635Z AUTO 31007KT 2 1/2SM -SN BKN015 OVC021 00/M01 A2994 RMK AO2 VIS 1V5 T00001015
KMMH 191615Z AUTO 29008G14KT 1 3/4SM -SN BKN013 OVC019 01/M02 A2994 RMK AO2 VIS 1V3 T00051017
KMMH 191555Z AUTO 00000KT 5SM -SN SCT019 BKN031 OVC048 01/M02 A2994 RMK AO2 T00101021
KMMH 191535Z AUTO 30008KT 10SM SCT034 BKN050 OVC065 01/M02 A2992 RMK AO2 T00081018
KMMH 191515Z AUTO 29015KT 10SM -SN SCT036 BKN046 OVC070 01/M01 A2993 RMK AO2 T00091014